sensor_id;sensor_type;location;lat;lon;timestamp;P1;durP1;ratioP1;P2;durP2;ratioP2
29006;SDS011;16104;48.642;9.008;2023-03-14T00:02:01;0.60;;;0.50;;
29006;SDS011;16104;48.642;9.008;2023-03-14T00:06:56;2.58;;;0.60;;
29006;SDS011;16104;48.642;9.008;2023-03-14T00:11:55;0.85;;;0.50;;
29006;SDS011;16104;48.642;9.008;2023-03-14T00:16:51;0.70;;;0.57;;
29006;SDS011;16104;48.642;9.008;2023-03-14T00:21:46;3.13;;;0.55;;
29006;SDS011;16104;48.642;9.008;2023-03-14T00:26:42;0.40;;;0.40;;
29006;SDS011;16104;48.642;9.008;2023-03-14T00:31:37;0.22;;;0.22;;
29006;SDS011;16104;48.642;9.008;2023-03-14T00:36:34;0.82;;;0.40;;
29006;SDS011;16104;48.642;9.008;2023-03-14T00:41:29;4.35;;;0.40;;
29006;SDS011;16104;48.642;9.008;2023-03-14T00:46:25;0.40;;;0.30;;
29006;SDS011;16104;48.642;9.008;2023-03-14T00:51:20;1.20;;;0.35;;
29006;SDS011;16104;48.642;9.008;2023-03-14T00:56:16;0.30;;;0.30;;
29006;SDS011;16104;48.642;9.008;2023-03-14T02:02:16;0.50;;;0.30;;
29006;SDS011;16104;48.642;9.008;2023-03-14T02:07:13;0.35;;;0.30;;
29006;SDS011;16104;48.642;9.008;2023-03-14T02:12:14;0.77;;;0.40;;
29006;SDS011;16104;48.642;9.008;2023-03-14T03:08:00;0.63;;;0.40;;
29006;SDS011;16104;48.642;9.008;2023-03-14T03:12:55;0.90;;;0.30;;
29006;SDS011;16104;48.642;9.008;2023-03-14T04:03:39;3.13;;;0.82;;
29006;SDS011;16104;48.642;9.008;2023-03-14T04:08:35;4.40;;;0.88;;
29006;SDS011;16104;48.642;9.008;2023-03-14T04:13:31;3.67;;;0.90;;
29006;SDS011;16104;48.642;9.008;2023-03-14T04:18:26;3.38;;;0.90;;
29006;SDS011;16104;48.642;9.008;2023-03-14T04:23:23;2.33;;;0.70;;
29006;SDS011;16104;48.642;9.008;2023-03-14T04:28:19;2.90;;;1.00;;
29006;SDS011;16104;48.642;9.008;2023-03-14T04:33:14;2.92;;;0.70;;
29006;SDS011;16104;48.642;9.008;2023-03-14T04:38:12;8.93;;;2.28;;
29006;SDS011;16104;48.642;9.008;2023-03-14T04:43:08;4.63;;;1.13;;
29006;SDS011;16104;48.642;9.008;2023-03-14T04:48:06;3.83;;;0.80;;
29006;SDS011;16104;48.642;9.008;2023-03-14T04:53:01;3.08;;;0.77;;
29006;SDS011;16104;48.642;9.008;2023-03-14T04:57:57;2.50;;;0.65;;
29006;SDS011;16104;48.642;9.008;2023-03-14T05:02:53;3.17;;;0.80;;
29006;SDS011;16104;48.642;9.008;2023-03-14T05:07:48;2.67;;;0.75;;
29006;SDS011;16104;48.642;9.008;2023-03-14T05:12:43;2.50;;;0.93;;
29006;SDS011;16104;48.642;9.008;2023-03-14T05:17:39;3.53;;;0.80;;
29006;SDS011;16104;48.642;9.008;2023-03-14T05:22:35;4.30;;;0.80;;
29006;SDS011;16104;48.642;9.008;2023-03-14T05:27:30;2.95;;;0.70;;
29006;SDS011;16104;48.642;9.008;2023-03-14T05:32:26;3.38;;;0.88;;
29006;SDS011;16104;48.642;9.008;2023-03-14T05:37:21;5.35;;;1.00;;
29006;SDS011;16104;48.642;9.008;2023-03-14T05:42:17;5.13;;;0.88;;
29006;SDS011;16104;48.642;9.008;2023-03-14T05:47:12;2.33;;;0.90;;
29006;SDS011;16104;48.642;9.008;2023-03-14T05:52:08;3.85;;;0.90;;
29006;SDS011;16104;48.642;9.008;2023-03-14T05:57:04;4.90;;;0.80;;
29006;SDS011;16104;48.642;9.008;2023-03-14T06:01:59;3.92;;;0.80;;
29006;SDS011;16104;48.642;9.008;2023-03-14T06:06:56;2.30;;;0.75;;
29006;SDS011;16104;48.642;9.008;2023-03-14T06:11:52;4.45;;;0.68;;
29006;SDS011;16104;48.642;9.008;2023-03-14T06:16:47;3.03;;;0.85;;
29006;SDS011;16104;48.642;9.008;2023-03-14T06:21:44;3.90;;;1.35;;
29006;SDS011;16104;48.642;9.008;2023-03-14T06:26:39;2.97;;;0.45;;
29006;SDS011;16104;48.642;9.008;2023-03-14T06:31:35;1.40;;;0.38;;
29006;SDS011;16104;48.642;9.008;2023-03-14T06:36:30;3.80;;;0.63;;
29006;SDS011;16104;48.642;9.008;2023-03-14T06:41:26;1.67;;;0.55;;
29006;SDS011;16104;48.642;9.008;2023-03-14T06:46:21;1.85;;;0.50;;
29006;SDS011;16104;48.642;9.008;2023-03-14T06:51:17;2.92;;;0.68;;
29006;SDS011;16104;48.642;9.008;2023-03-14T06:56:12;1.80;;;0.30;;
29006;SDS011;16104;48.642;9.008;2023-03-14T07:01:17;4.32;;;0.40;;
29006;SDS011;16104;48.642;9.008;2023-03-14T07:06:19;2.10;;;0.52;;
29006;SDS011;16104;48.642;9.008;2023-03-14T07:11:14;1.65;;;0.40;;
29006;SDS011;16104;48.642;9.008;2023-03-14T07:16:10;1.92;;;0.40;;
29006;SDS011;16104;48.642;9.008;2023-03-14T07:21:06;1.05;;;0.40;;
29006;SDS011;16104;48.642;9.008;2023-03-14T07:26:02;0.95;;;0.40;;
29006;SDS011;16104;48.642;9.008;2023-03-14T07:30:58;1.67;;;0.45;;
29006;SDS011;16104;48.642;9.008;2023-03-14T07:35:53;1.42;;;0.40;;
29006;SDS011;16104;48.642;9.008;2023-03-14T07:40:50;0.68;;;0.28;;
29006;SDS011;16104;48.642;9.008;2023-03-14T07:45:52;1.98;;;0.40;;
29006;SDS011;16104;48.642;9.008;2023-03-14T07:50:48;1.73;;;0.50;;
29006;SDS011;16104;48.642;9.008;2023-03-14T07:55:45;0.93;;;0.50;;
29006;SDS011;16104;48.642;9.008;2023-03-14T08:00:40;1.75;;;0.65;;
29006;SDS011;16104;48.642;9.008;2023-03-14T08:05:36;3.13;;;0.80;;
29006;SDS011;16104;48.642;9.008;2023-03-14T08:10:33;3.63;;;0.77;;
29006;SDS011;16104;48.642;9.008;2023-03-14T08:15:29;2.15;;;0.70;;
29006;SDS011;16104;48.642;9.008;2023-03-14T08:20:26;3.08;;;0.40;;
29006;SDS011;16104;48.642;9.008;2023-03-14T08:25:23;1.08;;;0.40;;
29006;SDS011;16104;48.642;9.008;2023-03-14T08:30:20;2.03;;;0.73;;
29006;SDS011;16104;48.642;9.008;2023-03-14T08:35:17;1.45;;;1.08;;
29006;SDS011;16104;48.642;9.008;2023-03-14T08:40:12;3.35;;;1.60;;
29006;SDS011;16104;48.642;9.008;2023-03-14T08:45:09;3.58;;;2.55;;
29006;SDS011;16104;48.642;9.008;2023-03-14T08:50:08;1.85;;;0.95;;
29006;SDS011;16104;48.642;9.008;2023-03-14T08:55:05;2.33;;;0.70;;
29006;SDS011;16104;48.642;9.008;2023-03-14T09:00:02;1.50;;;0.73;;
29006;SDS011;16104;48.642;9.008;2023-03-14T09:05:00;2.45;;;1.23;;
29006;SDS011;16104;48.642;9.008;2023-03-14T09:09:56;4.78;;;0.40;;
29006;SDS011;16104;48.642;9.008;2023-03-14T09:14:51;3.97;;;0.75;;
29006;SDS011;16104;48.642;9.008;2023-03-14T09:19:47;1.55;;;1.10;;
29006;SDS011;16104;48.642;9.008;2023-03-14T09:24:42;1.75;;;1.02;;
29006;SDS011;16104;48.642;9.008;2023-03-14T09:29:38;1.00;;;0.40;;
29006;SDS011;16104;48.642;9.008;2023-03-14T09:34:33;1.05;;;0.32;;
29006;SDS011;16104;48.642;9.008;2023-03-14T09:39:29;0.15;;;0.15;;
29006;SDS011;16104;48.642;9.008;2023-03-14T09:44:32;0.95;;;0.35;;
29006;SDS011;16104;48.642;9.008;2023-03-14T09:49:36;0.30;;;0.20;;
29006;SDS011;16104;48.642;9.008;2023-03-14T09:54:35;2.80;;;0.35;;
29006;SDS011;16104;48.642;9.008;2023-03-14T09:59:33;0.30;;;0.20;;
29006;SDS011;16104;48.642;9.008;2023-03-14T10:04:31;0.85;;;0.30;;
29006;SDS011;16104;48.642;9.008;2023-03-14T10:09:27;1.90;;;0.55;;
29006;SDS011;16104;48.642;9.008;2023-03-14T10:14:34;4.55;;;0.70;;
29006;SDS011;16104;48.642;9.008;2023-03-14T10:19:32;0.38;;;0.30;;
29006;SDS011;16104;48.642;9.008;2023-03-14T10:24:34;0.70;;;0.40;;
29006;SDS011;16104;48.642;9.008;2023-03-14T10:29:30;0.60;;;0.20;;
29006;SDS011;16104;48.642;9.008;2023-03-14T10:34:34;1.13;;;0.40;;
29006;SDS011;16104;48.642;9.008;2023-03-14T10:46:26;0.70;;;0.30;;
29006;SDS011;16104;48.642;9.008;2023-03-14T16:35:57;2.92;;;0.63;;
29006;SDS011;16104;48.642;9.008;2023-03-14T16:41:20;2.72;;;0.80;;
29006;SDS011;16104;48.642;9.008;2023-03-14T16:46:17;4.28;;;0.70;;
29006;SDS011;16104;48.642;9.008;2023-03-14T16:51:13;3.20;;;0.90;;
29006;SDS011;16104;48.642;9.008;2023-03-14T16:56:10;3.90;;;0.70;;
29006;SDS011;16104;48.642;9.008;2023-03-14T17:01:07;4.82;;;1.00;;
29006;SDS011;16104;48.642;9.008;2023-03-14T17:06:04;1.25;;;0.70;;
29006;SDS011;16104;48.642;9.008;2023-03-14T17:10:59;2.10;;;0.77;;
29006;SDS011;16104;48.642;9.008;2023-03-14T17:15:55;1.88;;;0.75;;
29006;SDS011;16104;48.642;9.008;2023-03-14T17:20:52;2.42;;;0.80;;
29006;SDS011;16104;48.642;9.008;2023-03-14T17:25:49;4.25;;;0.70;;
29006;SDS011;16104;48.642;9.008;2023-03-14T17:30:45;1.50;;;0.80;;
29006;SDS011;16104;48.642;9.008;2023-03-14T17:35:43;1.25;;;0.80;;
29006;SDS011;16104;48.642;9.008;2023-03-14T17:40:39;3.92;;;1.00;;
29006;SDS011;16104;48.642;9.008;2023-03-14T17:45:34;2.35;;;0.75;;
29006;SDS011;16104;48.642;9.008;2023-03-14T17:50:30;1.33;;;0.63;;
29006;SDS011;16104;48.642;9.008;2023-03-14T17:55:25;2.53;;;1.17;;
29006;SDS011;16104;48.642;9.008;2023-03-14T18:00:21;1.77;;;0.90;;
29006;SDS011;16104;48.642;9.008;2023-03-14T18:05:18;3.03;;;1.10;;
29006;SDS011;16104;48.642;9.008;2023-03-14T18:10:13;4.05;;;1.20;;
29006;SDS011;16104;48.642;9.008;2023-03-14T18:15:11;1.92;;;0.70;;
29006;SDS011;16104;48.642;9.008;2023-03-14T18:20:07;2.40;;;0.88;;
29006;SDS011;16104;48.642;9.008;2023-03-14T18:25:07;2.53;;;0.90;;
29006;SDS011;16104;48.642;9.008;2023-03-14T18:30:05;2.95;;;0.77;;
29006;SDS011;16104;48.642;9.008;2023-03-14T18:35:01;1.98;;;0.85;;
29006;SDS011;16104;48.642;9.008;2023-03-14T18:39:56;8.23;;;3.85;;
29006;SDS011;16104;48.642;9.008;2023-03-14T18:44:52;3.15;;;1.10;;
29006;SDS011;16104;48.642;9.008;2023-03-14T18:49:47;2.72;;;1.27;;
29006;SDS011;16104;48.642;9.008;2023-03-14T18:54:43;3.75;;;0.93;;
29006;SDS011;16104;48.642;9.008;2023-03-14T18:59:38;4.88;;;1.20;;
29006;SDS011;16104;48.642;9.008;2023-03-14T19:04:34;1.75;;;1.00;;
29006;SDS011;16104;48.642;9.008;2023-03-14T19:09:29;2.90;;;1.10;;
29006;SDS011;16104;48.642;9.008;2023-03-14T19:14:25;4.63;;;1.25;;
29006;SDS011;16104;48.642;9.008;2023-03-14T19:19:20;3.67;;;1.00;;
29006;SDS011;16104;48.642;9.008;2023-03-14T19:24:17;5.70;;;1.15;;
29006;SDS011;16104;48.642;9.008;2023-03-14T19:29:14;5.15;;;1.13;;
29006;SDS011;16104;48.642;9.008;2023-03-14T19:34:09;4.50;;;1.70;;
29006;SDS011;16104;48.642;9.008;2023-03-14T19:39:05;3.05;;;2.00;;
29006;SDS011;16104;48.642;9.008;2023-03-14T19:44:01;3.17;;;1.40;;
29006;SDS011;16104;48.642;9.008;2023-03-14T19:48:56;6.05;;;2.03;;
29006;SDS011;16104;48.642;9.008;2023-03-14T19:53:52;3.50;;;1.80;;
29006;SDS011;16104;48.642;9.008;2023-03-14T19:58:48;4.88;;;2.47;;
29006;SDS011;16104;48.642;9.008;2023-03-14T20:03:44;6.07;;;2.10;;
29006;SDS011;16104;48.642;9.008;2023-03-14T20:08:39;5.47;;;2.50;;
29006;SDS011;16104;48.642;9.008;2023-03-14T20:13:37;5.88;;;3.20;;
29006;SDS011;16104;48.642;9.008;2023-03-14T20:18:32;6.25;;;2.95;;
29006;SDS011;16104;48.642;9.008;2023-03-14T20:23:28;9.32;;;3.60;;
29006;SDS011;16104;48.642;9.008;2023-03-14T20:28:24;4.50;;;2.60;;
29006;SDS011;16104;48.642;9.008;2023-03-14T20:33:20;4.40;;;2.25;;
29006;SDS011;16104;48.642;9.008;2023-03-14T20:38:16;5.72;;;3.72;;
29006;SDS011;16104;48.642;9.008;2023-03-14T20:43:12;3.42;;;2.05;;
29006;SDS011;16104;48.642;9.008;2023-03-14T20:48:07;6.43;;;1.85;;
29006;SDS011;16104;48.642;9.008;2023-03-14T20:53:03;5.03;;;1.63;;
29006;SDS011;16104;48.642;9.008;2023-03-14T20:57:58;9.27;;;2.03;;
29006;SDS011;16104;48.642;9.008;2023-03-14T21:02:55;3.70;;;1.70;;
29006;SDS011;16104;48.642;9.008;2023-03-14T21:07:50;3.22;;;1.50;;
29006;SDS011;16104;48.642;9.008;2023-03-14T21:12:47;4.18;;;1.23;;
29006;SDS011;16104;48.642;9.008;2023-03-14T21:17:42;3.45;;;1.23;;
29006;SDS011;16104;48.642;9.008;2023-03-14T21:22:38;3.33;;;1.05;;
29006;SDS011;16104;48.642;9.008;2023-03-14T21:27:36;2.38;;;1.08;;
29006;SDS011;16104;48.642;9.008;2023-03-14T21:32:33;2.28;;;1.30;;
29006;SDS011;16104;48.642;9.008;2023-03-14T21:37:28;5.85;;;2.22;;
29006;SDS011;16104;48.642;9.008;2023-03-14T21:42:24;4.25;;;2.13;;
29006;SDS011;16104;48.642;9.008;2023-03-14T21:47:19;3.05;;;1.30;;
29006;SDS011;16104;48.642;9.008;2023-03-14T21:52:17;2.97;;;1.73;;
29006;SDS011;16104;48.642;9.008;2023-03-14T21:57:14;5.53;;;1.30;;
29006;SDS011;16104;48.642;9.008;2023-03-14T22:02:13;6.07;;;1.45;;
29006;SDS011;16104;48.642;9.008;2023-03-14T22:07:11;4.65;;;2.58;;
29006;SDS011;16104;48.642;9.008;2023-03-14T22:12:09;5.30;;;1.55;;
29006;SDS011;16104;48.642;9.008;2023-03-14T22:17:11;5.43;;;1.58;;
29006;SDS011;16104;48.642;9.008;2023-03-14T22:22:06;2.03;;;1.10;;
29006;SDS011;16104;48.642;9.008;2023-03-14T22:27:02;3.38;;;1.20;;
29006;SDS011;16104;48.642;9.008;2023-03-14T22:31:58;3.97;;;1.50;;
29006;SDS011;16104;48.642;9.008;2023-03-14T22:36:53;2.70;;;1.30;;
29006;SDS011;16104;48.642;9.008;2023-03-14T22:41:49;1.35;;;0.50;;
29006;SDS011;16104;48.642;9.008;2023-03-14T22:46:44;0.90;;;0.32;;
29006;SDS011;16104;48.642;9.008;2023-03-14T22:51:40;1.35;;;0.40;;
29006;SDS011;16104;48.642;9.008;2023-03-14T22:56:35;0.60;;;0.52;;
29006;SDS011;16104;48.642;9.008;2023-03-14T23:01:31;0.80;;;0.80;;
29006;SDS011;16104;48.642;9.008;2023-03-14T23:06:26;1.20;;;1.10;;
29006;SDS011;16104;48.642;9.008;2023-03-14T23:11:23;2.20;;;0.90;;
29006;SDS011;16104;48.642;9.008;2023-03-14T23:16:20;1.27;;;1.15;;
29006;SDS011;16104;48.642;9.008;2023-03-14T23:21:16;2.88;;;1.10;;
29006;SDS011;16104;48.642;9.008;2023-03-14T23:26:15;1.67;;;1.40;;
29006;SDS011;16104;48.642;9.008;2023-03-14T23:31:12;1.60;;;1.38;;
29006;SDS011;16104;48.642;9.008;2023-03-14T23:36:10;2.22;;;1.38;;
29006;SDS011;16104;48.642;9.008;2023-03-14T23:41:08;2.45;;;1.55;;
29006;SDS011;16104;48.642;9.008;2023-03-14T23:46:08;2.10;;;1.45;;
29006;SDS011;16104;48.642;9.008;2023-03-14T23:51:05;2.80;;;1.90;;
29006;SDS011;16104;48.642;9.008;2023-03-14T23:56:02;3.60;;;2.00;;
